Time;durP1;ratioP1;P1;durP2;ratioP2;P2;SDS_P1;SDS_P2;PMS_P1;PMS_P2;Temp;Humidity;BMP_temperature;BMP_pressure;BME280_temperature;BME280_humidity;BME280_pressure;Samples;Min_cycle;Max_cycle;Signal;HPM_P1;HPM_P2
2021/01/11 00:01:43;;;;;;;42.22;26.70;;;;;;;4.47;75.45;100272.84;6157752;23;20021;-81
2021/01/11 00:04:10;;;;;;;38.10;24.77;;;;;;;4.48;75.44;100278.03;6157483;23;20033;-81
2021/01/11 00:06:38;;;;;;;34.58;23.23;;;;;;;4.48;75.52;100272.81;6157828;23;20029;-81
2021/01/11 00:09:05;;;;;;;34.42;24.00;;;;;;;4.49;75.39;100271.06;6157765;23;20021;-81
2021/01/11 00:11:32;;;;;;;34.30;25.27;;;;;;;4.49;75.53;100271.06;6157442;23;20026;-81
2021/01/11 00:13:59;;;;;;;36.05;24.65;;;;;;;4.49;75.46;100273.69;6157331;23;20072;-81
2021/01/11 00:16:25;;;;;;;38.55;26.27;;;;;;;4.49;75.55;100271.06;6157644;23;20076;-81
2021/01/11 00:18:52;;;;;;;40.15;26.08;;;;;;;4.50;75.74;100270.16;6157260;23;20033;-81
2021/01/11 00:21:18;;;;;;;31.98;22.60;;;;;;;4.50;75.60;100262.34;6157636;23;20018;-81
2021/01/11 00:23:44;;;;;;;34.65;25.20;;;;;;;4.52;75.90;100273.63;6156903;23;20033;-81
2021/01/11 00:26:11;;;;;;;35.70;25.02;;;;;;;4.52;75.39;100269.25;6157246;23;20030;-81
2021/01/11 00:28:41;;;;;;;35.08;23.88;;;;;;;4.51;75.28;100264.94;6157479;23;20025;-81
2021/01/11 00:31:08;;;;;;;37.92;24.95;;;;;;;4.54;75.59;100262.25;6131307;23;20026;-81
2021/01/11 00:33:34;;;;;;;39.40;26.67;;;;;;;4.55;75.56;100263.09;6156371;23;20026;-81
2021/01/11 00:36:03;;;;;;;37.47;26.90;;;;;;;4.55;75.37;100263.97;6157346;23;20022;-81
2021/01/11 00:38:30;;;;;;;40.97;25.92;;;;;;;4.55;75.39;100261.34;6157474;23;20021;-81
2021/01/11 00:40:56;;;;;;;39.13;25.83;;;;;;;4.57;75.47;100266.53;6157311;23;20024;-81
2021/01/11 00:43:22;;;;;;;34.70;24.50;;;;;;;4.56;75.25;100250.03;6131145;23;20028;-82
2021/01/11 00:45:48;;;;;;;38.42;25.70;;;;;;;4.60;75.33;100257.78;6157516;23;20025;-81
2021/01/11 00:48:14;;;;;;;45.05;27.85;;;;;;;4.58;75.27;100260.41;6157429;23;20392;-81
2021/01/11 00:50:40;;;;;;;38.45;25.70;;;;;;;4.59;75.41;100258.69;6157312;23;20021;-81
2021/01/11 00:53:07;;;;;;;40.20;27.13;;;;;;;4.57;75.28;100259.56;6157428;23;20033;-81
2021/01/11 00:55:33;;;;;;;39.45;26.02;;;;;;;4.59;75.23;100250.88;6131400;23;20394;-81
2021/01/11 00:57:59;;;;;;;41.25;26.30;;;;;;;4.59;75.39;100253.47;6157198;23;20121;-81
2021/01/11 01:00:25;;;;;;;40.42;24.50;;;;;;;4.57;75.35;100243.06;6157533;23;20028;-81
2021/01/11 01:02:51;;;;;;;39.72;26.65;;;;;;;4.56;75.23;100244.81;6156949;23;20026;-81
2021/01/11 01:05:18;;;;;;;39.67;25.15;;;;;;;4.55;75.15;100242.22;6156751;23;20036;-81
2021/01/11 01:07:44;;;;;;;43.55;28.05;;;;;;;4.53;75.06;100244.03;6157243;23;20076;-81
2021/01/11 01:10:11;;;;;;;38.38;24.25;;;;;;;4.53;75.24;100239.66;6156756;23;20021;-81
2021/01/11 01:12:39;;;;;;;33.78;23.00;;;;;;;4.52;75.41;100242.34;6156764;23;20021;-81
2021/01/11 01:15:07;;;;;;;38.05;25.58;;;;;;;4.51;75.19;100243.19;6157183;23;20393;-81
2021/01/11 01:17:37;;;;;;;38.40;24.40;;;;;;;4.52;75.36;100239.72;6156821;23;20476;-81
2021/01/11 01:20:06;;;;;;;37.78;24.20;;;;;;;4.52;75.40;100235.34;6157084;23;20076;-81
2021/01/11 01:22:32;;;;;;;39.33;24.67;;;;;;;4.52;75.58;100237.97;6156664;23;20029;-81
2021/01/11 01:24:59;;;;;;;38.05;25.65;;;;;;;4.52;75.52;100232.75;6157143;23;20021;-81
2021/01/11 01:27:26;;;;;;;37.85;26.15;;;;;;;4.53;75.60;100236.22;6156702;23;20029;-81
2021/01/11 01:29:52;;;;;;;39.10;24.92;;;;;;;4.53;75.31;100236.22;6157225;23;20021;-81
2021/01/11 01:32:18;;;;;;;35.15;24.75;;;;;;;4.53;75.38;100234.44;6156251;23;20360;-81
2021/01/11 01:34:44;;;;;;;51.78;27.92;;;;;;;4.52;75.58;100242.34;6156547;23;20025;-81
2021/01/11 01:37:10;;;;;;;58.08;28.15;;;;;;;4.51;75.38;100235.38;6156440;23;20025;-81
2021/01/11 01:39:36;;;;;;;41.97;24.38;;;;;;;4.51;75.60;100244.06;6156921;23;20018;-81
2021/01/11 01:42:02;;;;;;;38.42;25.33;;;;;;;4.50;75.48;100238.88;6156568;23;20072;-79
2021/01/11 01:44:31;;;;;;;40.55;26.65;;;;;;;4.49;75.61;100235.41;6156800;23;20080;-81
2021/01/11 01:47:00;;;;;;;48.38;28.45;;;;;;;4.49;75.55;100237.19;6156745;23;20032;-81
2021/01/11 01:49:27;;;;;;;43.72;27.90;;;;;;;4.48;75.56;100241.53;6130636;23;20456;-82
2021/01/11 01:51:53;;;;;;;46.25;30.83;;;;;;;4.47;75.37;100229.41;6156409;23;20483;-81
2021/01/11 01:54:20;;;;;;;45.78;29.55;;;;;;;4.44;75.67;100226.84;6156618;23;20088;-81
2021/01/11 01:56:47;;;;;;;46.72;27.75;;;;;;;4.43;75.44;100223.41;6130773;23;20022;-81
2021/01/11 01:59:14;;;;;;;50.33;30.50;;;;;;;4.43;75.57;100219.94;6156588;23;20058;-81
2021/01/11 02:01:43;;;;;;;49.95;29.80;;;;;;;4.42;75.65;100215.63;6156409;23;20026;-81
2021/01/11 02:04:10;;;;;;;50.17;29.42;;;;;;;4.43;75.64;100214.72;6156383;23;20025;-81
2021/01/11 02:06:40;;;;;;;48.88;28.67;;;;;;;4.42;75.78;100215.63;6156645;23;20030;-81
2021/01/11 02:09:15;;;;;;;50.83;29.80;;;;;;;4.41;75.85;100209.53;6130498;23;20029;-81
2021/01/11 02:11:49;;;;;;;62.65;31.15;;;;;;;4.41;75.41;100206.94;6156601;23;20022;-81
2021/01/11 02:14:55;;;;;;;56.65;32.28;;;;;;;4.39;75.42;100205.25;6156287;23;20329;-81
2021/01/11 02:17:32;;;;;;;47.20;27.38;;;;;;;4.39;75.49;100202.66;6156194;23;20026;-81
2021/01/11 02:20:08;;;;;;;47.80;28.65;;;;;;;4.37;75.77;100202.69;6156437;23;20017;-81
2021/01/11 02:22:42;;;;;;;47.63;29.13;;;;;;;4.38;75.62;100211.38;6156451;23;20021;-81
2021/01/11 02:25:26;;;;;;;45.17;29.08;;;;;;;4.40;75.75;100206.97;6156456;23;20022;-80
2021/01/11 02:27:59;;;;;;;45.05;28.73;;;;;;;4.36;75.61;100203.59;6156088;23;20025;-81
2021/01/11 02:30:39;;;;;;;46.10;28.98;;;;;;;4.34;75.85;100196.69;6156435;23;20508;-81
2021/01/11 02:33:15;;;;;;;44.13;27.67;;;;;;;4.35;75.74;100199.28;6155886;23;20026;-81
2021/01/11 02:35:59;;;;;;;46.38;29.00;;;;;;;4.35;75.82;100198.41;6156394;23;20029;-81
2021/01/11 02:38:26;;;;;;;51.78;30.38;;;;;;;4.35;75.72;100204.50;6156423;23;20045;-81
2021/01/11 02:40:52;;;;;;;49.70;30.02;;;;;;;4.37;75.71;100204.47;6156154;23;20017;-81
2021/01/11 02:43:18;;;;;;;48.60;29.33;;;;;;;4.37;76.02;100204.47;6156310;23;20021;-81
2021/01/11 02:45:44;;;;;;;45.55;29.23;;;;;;;4.37;75.61;100196.63;6156655;23;20028;-81
2021/01/11 02:48:13;;;;;;;49.75;30.38;;;;;;;4.36;75.88;100195.75;6155850;23;20026;-81
2021/01/11 02:50:59;;;;;;;53.25;31.65;;;;;;;4.34;75.71;100196.69;6156236;23;20393;-81
2021/01/11 02:54:01;;;;;;;47.95;30.55;;;;;;;4.32;75.48;100201.94;6155992;23;20025;-81
2021/01/11 02:56:40;;;;;;;47.75;28.55;;;;;;;4.32;75.61;100191.53;6110389;23;20029;-80
2021/01/11 02:59:08;;;;;;;52.08;28.65;;;;;;;4.33;75.64;100190.63;6155168;23;20021;-81
2021/01/11 03:01:44;;;;;;;53.42;30.23;;;;;;;4.30;75.63;100178.53;6155946;23;20460;-81
2021/01/11 03:04:22;;;;;;;48.28;30.73;;;;;;;4.29;75.65;100179.41;6155918;23;20101;-81
2021/01/11 03:06:54;;;;;;;49.10;29.48;;;;;;;4.30;75.78;100181.13;6156208;23;20456;-81
2021/01/11 03:09:20;;;;;;;58.72;32.13;;;;;;;4.32;75.59;100175.88;6156241;23;20021;-81
2021/01/11 03:11:47;;;;;;;53.75;32.15;;;;;;;4.32;75.79;100169.81;6155883;23;20456;-81
2021/01/11 03:14:13;;;;;;;49.13;30.95;;;;;;;4.32;75.84;100161.97;6129667;23;20045;-81
2021/01/11 03:16:39;;;;;;;55.47;33.25;;;;;;;4.29;75.88;100169.00;6156152;23;20025;-82
2021/01/11 03:19:06;;;;;;;54.53;34.08;;;;;;;4.30;75.83;100162.03;6156125;23;20022;-81
2021/01/11 03:21:33;;;;;;;52.03;32.35;;;;;;;4.30;75.78;100154.22;6156021;23;20018;-81
2021/01/11 03:24:00;;;;;;;56.75;34.40;;;;;;;4.30;75.83;100167.25;6155381;23;20519;-80
2021/01/11 03:26:26;;;;;;;55.65;34.42;;;;;;;4.30;75.86;100160.28;6155845;23;20527;-81
2021/01/11 03:28:53;;;;;;;56.80;34.00;;;;;;;4.29;75.45;100163.78;6156054;23;20022;-81
2021/01/11 03:31:20;;;;;;;55.00;31.98;;;;;;;4.28;75.89;100166.44;6130278;23;20017;-81
2021/01/11 03:33:47;;;;;;;52.67;34.35;;;;;;;4.28;75.89;100156.88;6169314;23;20032;-84
2021/01/11 03:36:14;;;;;;;54.03;32.55;;;;;;;4.26;75.54;100156.03;6165237;23;20501;-85
2021/01/11 03:38:41;;;;;;;55.83;35.22;;;;;;;4.25;75.54;100159.53;6189949;23;20025;-85
2021/01/11 03:41:08;;;;;;;49.55;32.30;;;;;;;4.25;75.60;100145.66;6164846;23;20017;-84
2021/01/11 03:43:44;;;;;;;58.40;34.92;;;;;;;4.21;75.32;100146.59;6189306;23;20020;-85
2021/01/11 03:46:16;;;;;;;60.72;36.92;;;;;;;4.19;74.97;100146.69;6165136;23;20033;-85
2021/01/11 03:48:43;;;;;;;59.15;35.95;;;;;;;4.19;75.61;100151.00;6164306;23;20049;-84
2021/01/11 03:51:09;;;;;;;62.28;37.13;;;;;;;4.15;75.33;100140.66;6164566;23;20021;-84
2021/01/11 03:53:36;;;;;;;58.05;34.88;;;;;;;4.14;75.73;100144.16;6164082;23;20029;-85
2021/01/11 03:56:07;;;;;;;61.95;36.45;;;;;;;4.11;75.07;100159.03;6188810;23;20024;-84
2021/01/11 03:58:33;;;;;;;64.15;39.28;;;;;;;4.09;75.63;100147.78;6190568;23;20032;-84
2021/01/11 04:00:59;;;;;;;58.05;34.60;;;;;;;4.08;75.51;100146.06;6191101;23;20013;-85
2021/01/11 04:03:27;;;;;;;59.30;34.95;;;;;;;4.06;75.61;100153.91;6163631;23;20025;-85
2021/01/11 04:05:54;;;;;;;63.20;35.67;;;;;;;4.05;75.79;100152.22;6191278;23;20021;-85
2021/01/11 04:08:21;;;;;;;61.70;37.05;;;;;;;4.04;75.47;100166.97;6163943;23;20040;-84
2021/01/11 04:10:47;;;;;;;60.70;34.33;;;;;;;4.03;75.58;100164.41;6167522;23;20025;-84
2021/01/11 04:13:13;;;;;;;59.03;34.65;;;;;;;4.01;75.61;100154.00;6191402;23;20079;-84
2021/01/11 04:15:40;;;;;;;62.28;34.83;;;;;;;4.01;75.72;100154.00;6192371;23;20029;-84
2021/01/11 04:18:06;;;;;;;64.22;36.22;;;;;;;3.99;75.62;100142.78;6166732;23;20021;-84
2021/01/11 04:20:32;;;;;;;65.38;35.08;;;;;;;3.98;75.74;100140.19;6193465;23;20024;-84
2021/01/11 04:22:59;;;;;;;77.30;40.10;;;;;;;3.96;75.50;100145.44;6190253;23;20460;-85
2021/01/11 04:25:26;;;;;;;67.40;36.30;;;;;;;3.95;75.40;100129.84;6193043;23;20025;-84
2021/01/11 04:27:55;;;;;;;73.75;39.25;;;;;;;3.94;75.49;100125.53;6166728;23;20486;-84
2021/01/11 04:30:21;;;;;;;70.63;37.88;;;;;;;3.94;75.72;100125.53;6191343;23;20028;-85
2021/01/11 04:32:47;;;;;;;70.60;40.60;;;;;;;3.90;75.97;100125.59;6164739;23;20029;-84
2021/01/11 04:35:14;;;;;;;79.47;41.58;;;;;;;3.89;75.62;100128.28;6190646;23;20021;-84
2021/01/11 04:37:43;;;;;;;71.07;39.40;;;;;;;3.85;75.31;100124.84;6190207;23;20325;-83
2021/01/11 04:40:10;;;;;;;77.40;40.10;;;;;;;3.83;75.39;100117.97;6190526;23;20024;-83
2021/01/11 04:42:58;;;;;;;72.47;36.90;;;;;;;3.81;75.40;100120.63;6164793;23;20344;-84
2021/01/11 04:45:25;;;;;;;75.20;39.15;;;;;;;3.79;75.41;100140.63;6190652;23;20025;-84
2021/01/11 04:47:56;;;;;;;71.97;36.72;;;;;;;3.76;75.61;100125.94;6164598;23;20084;-86
2021/01/11 04:50:23;;;;;;;77.10;41.35;;;;;;;3.75;75.54;100121.63;6188817;23;20068;-84
2021/01/11 04:52:49;;;;;;;71.75;37.63;;;;;;;3.74;75.56;100122.50;6164743;23;20097;-84
2021/01/11 04:55:15;;;;;;;68.18;37.03;;;;;;;3.74;75.96;100119.06;6166418;23;20028;-85
2021/01/11 04:57:55;;;;;;;75.25;37.65;;;;;;;3.70;75.76;100133.03;6164310;23;20391;-85
2021/01/11 05:00:24;;;;;;;68.35;35.05;;;;;;;3.72;75.75;100136.44;6190321;23;20021;-83
2021/01/11 05:02:58;;;;;;;72.05;37.03;;;;;;;3.68;75.68;100125.25;6164487;23;20032;-84
2021/01/11 05:05:26;;;;;;;72.60;37.25;;;;;;;3.68;75.75;100130.47;6189309;23;20025;-84
2021/01/11 05:07:53;;;;;;;78.88;37.70;;;;;;;3.66;75.84;100129.63;6162541;23;20063;-83
2021/01/11 05:10:25;;;;;;;71.53;34.15;;;;;;;3.63;75.64;100133.16;6162622;23;20017;-85
2021/01/11 05:13:05;;;;;;;73.32;35.35;;;;;;;3.61;75.76;100123.66;6162754;23;20075;-84
2021/01/11 05:15:33;;;;;;;87.63;37.35;;;;;;;3.63;75.75;100127.13;6163062;23;20025;-84
2021/01/11 05:18:00;;;;;;;72.57;32.42;;;;;;;3.61;76.18;100119.34;6163689;23;20029;-84
2021/01/11 05:20:29;;;;;;;75.72;33.67;;;;;;;3.61;75.83;100115.88;6188847;23;20072;-84
2021/01/11 05:22:57;;;;;;;74.30;35.60;;;;;;;3.58;76.09;100115.91;6162987;23;20080;-84
2021/01/11 05:25:26;;;;;;;72.40;31.80;;;;;;;3.57;76.01;100106.41;6162955;23;20056;-83
2021/01/11 05:28:21;;;;;;;90.10;36.28;;;;;;;3.48;75.57;100100.50;6162506;23;20328;-84
2021/01/11 05:30:49;;;;;;;75.05;31.52;;;;;;;3.52;75.81;100091.75;6164216;23;20091;-83
2021/01/11 05:33:22;;;;;;;71.38;30.85;;;;;;;3.51;76.05;100092.66;6164194;23;20399;-84
2021/01/11 05:36:10;;;;;;;75.05;30.77;;;;;;;3.44;75.70;100096.25;6163119;23;20021;-84
2021/01/11 05:38:48;;;;;;;71.60;28.67;;;;;;;3.49;75.92;100085.75;6189520;23;20332;-84
2021/01/11 05:41:17;;;;;;;72.00;29.35;;;;;;;3.46;75.80;100078.88;6162885;23;20459;-84
2021/01/11 05:44:05;;;;;;;81.00;30.25;;;;;;;3.45;76.18;100089.31;6164458;23;20025;-84
2021/01/11 05:46:31;;;;;;;79.18;30.98;;;;;;;3.45;76.08;100076.31;6188962;23;20021;-84
2021/01/11 05:49:02;;;;;;;87.18;31.90;;;;;;;3.41;76.08;100078.13;6187706;23;20021;-84
2021/01/11 05:51:31;;;;;;;71.80;29.88;;;;;;;3.41;76.21;100070.31;6161857;23;20028;-84
2021/01/11 05:53:57;;;;;;;73.38;30.38;;;;;;;3.41;76.34;100065.13;6138310;23;20025;-84
2021/01/11 05:56:24;;;;;;;81.85;30.73;;;;;;;3.38;75.92;100058.25;6162160;23;20025;-84
2021/01/11 05:59:06;;;;;;;74.72;29.35;;;;;;;3.36;76.35;100069.56;6188339;23;20029;-84
2021/01/11 06:01:36;;;;;;;74.35;29.02;;;;;;;3.37;75.97;100066.09;6188886;23;20329;-84
2021/01/11 06:04:04;;;;;;;70.93;29.52;;;;;;;3.35;76.05;100060.91;6188504;23;20068;-83
2021/01/11 06:06:30;;;;;;;58.75;25.55;;;;;;;3.34;76.32;100069.63;6188248;23;20036;-83
2021/01/11 06:08:56;;;;;;;59.33;28.77;;;;;;;3.31;76.14;100061.88;6187232;23;20067;-84
2021/01/11 06:11:25;;;;;;;52.25;24.67;;;;;;;3.28;76.05;100059.31;6161147;23;20084;-85
2021/01/11 06:13:56;;;;;;;63.63;26.08;;;;;;;3.24;76.03;100061.16;6160227;23;20029;-84
2021/01/11 06:16:28;;;;;;;61.80;26.33;;;;;;;3.22;75.89;100069.88;6160520;23;20097;-84
2021/01/11 06:18:55;;;;;;;45.17;21.80;;;;;;;3.20;75.95;100066.44;6160704;23;20452;-85
2021/01/11 06:21:22;;;;;;;47.03;21.92;;;;;;;3.20;76.10;100072.50;6160361;23;20367;-86
2021/01/11 06:24:08;;;;;;;50.20;21.83;;;;;;;3.20;76.03;100066.44;6185862;23;20522;-85
2021/01/11 06:26:36;;;;;;;67.43;22.35;;;;;;;3.19;76.28;100073.41;6160180;23;20021;-84
2021/01/11 06:29:32;;;;;;;47.25;21.30;;;;;;;3.17;76.37;100071.72;6159697;23;20025;-86
2021/01/11 06:32:19;;;;;;;53.85;24.77;;;;;;;3.13;76.05;100063.97;6186503;23;20329;-84
2021/01/11 06:34:45;;;;;;;48.67;22.48;;;;;;;3.15;75.63;100069.16;6186041;23;20028;-84
2021/01/11 06:37:20;;;;;;;45.17;22.02;;;;;;;3.10;76.06;100073.59;6186013;23;20036;-85
2021/01/11 06:39:47;;;;;;;46.38;21.60;;;;;;;3.09;76.11;100069.25;6160158;23;20079;-85
2021/01/11 06:42:14;;;;;;;43.60;22.65;;;;;;;3.06;76.06;100066.75;6160169;23;20391;-84
2021/01/11 06:44:46;;;;;;;36.55;19.88;;;;;;;3.05;76.18;100062.41;6185784;23;20083;-84
2021/01/11 06:47:25;;;;;;;43.45;22.00;;;;;;;2.98;75.56;100072.94;6160294;23;20025;-84
2021/01/11 06:50:02;;;;;;;42.30;20.77;;;;;;;3.01;75.89;100061.63;6185922;23;20471;-83
2021/01/11 06:52:35;;;;;;;41.38;21.58;;;;;;;2.97;75.73;100062.56;6160129;23;20076;-85
2021/01/11 06:55:12;;;;;;;42.85;21.13;;;;;;;2.93;75.66;100064.41;6160616;23;20024;-83
2021/01/11 06:57:39;;;;;;;34.55;18.85;;;;;;;2.94;76.18;100062.63;6186369;23;20021;-84
2021/01/11 07:00:07;;;;;;;35.33;18.52;;;;;;;2.93;76.00;100064.41;6160169;23;20021;-84
2021/01/11 07:02:40;;;;;;;37.90;18.30;;;;;;;2.88;75.60;100060.16;6185696;23;20079;-83
2021/01/11 07:05:27;;;;;;;40.88;20.20;;;;;;;2.89;75.88;100070.53;6186121;23;20064;-84
2021/01/11 07:08:15;;;;;;;39.13;19.13;;;;;;;2.87;75.66;100061.91;6185673;23;20464;-85
2021/01/11 07:10:43;;;;;;;40.42;20.67;;;;;;;2.88;76.26;100066.25;6160292;23;20017;-83
2021/01/11 07:13:19;;;;;;;39.30;20.63;;;;;;;2.84;75.60;100064.59;6159541;23;20075;-84
2021/01/11 07:15:51;;;;;;;36.40;19.65;;;;;;;2.83;75.57;100068.03;6160277;23;20089;-84
2021/01/11 07:18:39;;;;;;;35.83;17.60;;;;;;;2.82;75.96;100071.53;6160231;23;20032;-84
2021/01/11 07:21:18;;;;;;;40.58;19.67;;;;;;;2.86;76.34;100068.00;6162467;23;20460;-83
2021/01/11 07:23:45;;;;;;;40.55;19.38;;;;;;;2.85;76.46;100079.28;6159877;23;20029;-83
2021/01/11 07:26:17;;;;;;;40.20;19.85;;;;;;;2.83;75.93;100058.50;6186472;23;20028;-85
2021/01/11 07:28:56;;;;;;;37.05;19.48;;;;;;;2.83;76.12;100057.66;6186657;23;20030;-84
2021/01/11 07:31:27;;;;;;;50.72;22.02;;;;;;;2.85;76.38;100056.72;6160487;23;20387;-84
2021/01/11 07:34:01;;;;;;;37.80;20.35;;;;;;;2.84;76.30;100046.38;6185614;23;20028;-85
2021/01/11 07:36:36;;;;;;;45.60;22.45;;;;;;;2.82;75.92;100032.53;6159830;23;20025;-83
2021/01/11 07:39:29;;;;;;;41.65;19.67;;;;;;;2.80;76.37;100024.78;6185774;23;20025;-84
2021/01/11 07:41:56;;;;;;;32.80;16.23;;;;;;;2.82;76.34;100024.75;6186180;23;20395;-86
2021/01/11 07:44:24;;;;;;;44.45;22.50;;;;;;;2.80;76.60;100005.75;6160814;23;20078;-84
2021/01/11 07:46:54;;;;;;;41.85;21.15;;;;;;;2.78;76.23;100010.97;6187718;23;20033;-84
2021/01/11 07:49:21;;;;;;;48.95;21.65;;;;;;;2.77;76.50;100011.84;6161482;23;20463;-83
2021/01/11 07:51:49;;;;;;;47.53;23.88;;;;;;;2.78;76.70;99999.69;6188004;23;20325;-84
2021/01/11 07:54:18;;;;;;;45.75;23.73;;;;;;;2.79;76.62;99996.19;6161637;23;20348;-85
2021/01/11 07:56:45;;;;;;;45.13;22.67;;;;;;;2.80;76.43;100011.78;6162015;23;20025;-83
2021/01/11 07:59:12;;;;;;;57.72;23.75;;;;;;;2.80;76.45;99990.97;6161953;23;20079;-84
2021/01/11 08:01:41;;;;;;;48.47;23.23;;;;;;;2.82;76.65;99986.63;6161885;23;20021;-84
2021/01/11 08:04:12;;;;;;;52.90;24.25;;;;;;;2.85;76.90;99993.50;6161110;23;20095;-84
2021/01/11 08:06:53;;;;;;;47.97;23.50;;;;;;;2.83;76.82;99990.91;6188050;23;20048;-83
2021/01/11 08:09:25;;;;;;;48.65;23.88;;;;;;;2.86;76.77;99997.78;6161940;23;20028;-84
2021/01/11 08:12:07;;;;;;;45.83;23.13;;;;;;;2.87;77.04;99991.69;6187811;23;20092;-84
2021/01/11 08:14:33;;;;;;;50.38;24.88;;;;;;;2.90;76.73;100002.03;6187464;23;20466;-84
2021/01/11 08:17:01;;;;;;;49.33;25.63;;;;;;;2.91;76.82;99998.53;6187919;23;20025;-86
2021/01/11 08:19:28;;;;;;;49.58;24.40;;;;;;;2.94;76.97;100002.81;6161844;23;20025;-85
2021/01/11 08:21:58;;;;;;;55.78;25.80;;;;;;;2.93;76.93;100004.59;6187848;23;20379;-83
2021/01/11 08:24:24;;;;;;;65.70;31.23;;;;;;;2.97;77.10;100008.84;6187607;23;20032;-84
2021/01/11 08:27:11;;;;;;;52.72;26.73;;;;;;;2.97;76.91;100006.22;6187230;23;20100;-85
2021/01/11 08:29:39;;;;;;;60.28;28.48;;;;;;;3.00;76.67;100000.94;6187533;23;20025;-84
2021/01/11 08:32:17;;;;;;;63.55;29.92;;;;;;;2.99;77.02;100001.00;6187517;23;20017;-84
2021/01/11 08:34:44;;;;;;;57.85;28.55;;;;;;;3.03;76.93;100004.38;6137102;23;20017;-82
2021/01/11 08:37:29;;;;;;;65.80;31.30;;;;;;;3.01;76.89;99994.00;6187715;23;20033;-85
2021/01/11 08:40:20;;;;;;;56.83;30.70;;;;;;;3.03;77.00;100000.03;6161497;23;20072;-84
2021/01/11 08:42:48;;;;;;;67.88;31.25;;;;;;;3.09;77.04;99999.03;6161553;23;20025;-83
2021/01/11 08:45:34;;;;;;;61.70;32.35;;;;;;;3.08;77.01;99986.94;6161330;23;20032;-84
2021/01/11 08:48:14;;;;;;;66.82;33.53;;;;;;;3.10;76.94;99999.00;6162080;23;20051;-84
2021/01/11 08:50:57;;;;;;;59.75;30.38;;;;;;;3.11;77.19;99984.28;6162102;23;20017;-84
2021/01/11 08:53:33;;;;;;;63.10;33.38;;;;;;;3.13;77.16;99993.75;6187199;23;20027;-85
2021/01/11 08:56:06;;;;;;;56.00;31.05;;;;;;;3.16;77.48;99987.63;6187092;23;20024;-86
2021/01/11 08:58:33;;;;;;;;;;;;;;;3.18;77.15;99993.63;6161752;23;20029;-86
2021/01/11 09:01:09;;;;;;;67.97;34.38;;;;;;;3.21;76.98;99987.53;6160779;23;20288;-85
2021/01/11 09:03:47;;;;;;;61.80;31.98;;;;;;;3.22;77.00;99981.41;6186726;23;20025;-85
2021/01/11 09:06:38;;;;;;;63.08;32.45;;;;;;;3.22;77.19;99986.63;6187336;23;20104;-85
2021/01/11 09:09:10;;;;;;;67.78;32.63;;;;;;;3.24;76.98;99985.69;6186825;23;20020;-85
2021/01/11 09:11:39;;;;;;;68.13;34.45;;;;;;;3.26;77.27;99994.31;6160702;23;20464;-84
2021/01/11 09:14:13;;;;;;;71.20;33.47;;;;;;;3.28;77.05;99978.66;6160138;23;20025;-84
2021/01/11 09:16:44;;;;;;;67.30;34.30;;;;;;;3.30;77.14;99973.44;6161049;23;20025;-85
2021/01/11 09:19:13;;;;;;;;;;;;;;;3.33;76.88;99974.22;6161889;23;20455;-85
2021/01/11 09:22:02;;;;;;;63.55;32.53;;;;;;;3.37;77.21;99980.22;6161282;23;20220;-85
2021/01/11 09:24:34;;;;;;;64.00;33.20;;;;;;;3.37;77.22;99983.66;6186684;23;20040;-83
2021/01/11 09:27:00;;;;;;;72.68;36.28;;;;;;;3.39;77.16;99986.22;6161305;23;20027;-84
2021/01/11 09:29:27;;;;;;;61.92;31.95;;;;;;;3.40;77.42;99982.72;6187623;23;20021;-83
2021/01/11 09:31:53;;;;;;;69.20;33.03;;;;;;;3.43;77.30;100000.03;6187015;23;20088;-83
2021/01/11 09:34:20;;;;;;;67.47;34.17;;;;;;;3.45;77.29;99993.03;6184166;23;20067;-79
2021/01/11 09:36:50;;;;;;;69.43;34.97;;;;;;;3.47;77.38;99994.72;6186283;23;20076;-79
2021/01/11 09:39:17;;;;;;;63.75;32.97;;;;;;;3.49;77.40;100008.56;6161077;23;20025;-79
2021/01/11 09:41:46;;;;;;;66.63;35.72;;;;;;;3.51;77.25;100001.56;6186642;23;20096;-79
2021/01/11 09:44:13;;;;;;;69.18;36.17;;;;;;;3.54;77.35;99995.41;6185912;23;20025;-80
2021/01/11 09:46:41;;;;;;;65.47;33.65;;;;;;;3.54;77.01;99998.00;6186515;23;20020;-80
2021/01/11 09:49:08;;;;;;;66.10;34.65;;;;;;;3.59;77.24;99987.50;6186494;23;20021;-80
2021/01/11 09:51:34;;;;;;;65.68;33.67;;;;;;;3.59;77.47;99990.94;6186595;23;20017;-79
2021/01/11 09:54:00;;;;;;;57.55;31.00;;;;;;;3.62;76.90;99982.19;6159486;23;20083;-80
2021/01/11 09:56:26;;;;;;;70.72;35.80;;;;;;;3.62;77.18;99977.00;6186049;23;20464;-80
2021/01/11 09:58:54;;;;;;;63.50;32.25;;;;;;;3.65;76.98;99969.13;6186667;23;20025;-80
2021/01/11 10:01:22;;;;;;;59.40;32.42;;;;;;;3.65;76.89;99975.19;6185928;23;20068;-80
2021/01/11 10:03:49;;;;;;;64.20;32.20;;;;;;;3.67;77.06;99976.91;6160234;23;20028;-80
2021/01/11 10:06:16;;;;;;;60.38;32.15;;;;;;;3.66;76.76;99960.41;6185942;23;20193;-80
2021/01/11 10:08:42;;;;;;;63.03;34.75;;;;;;;3.69;76.93;99955.13;6186398;23;20056;-79
2021/01/11 10:11:13;;;;;;;64.78;35.35;;;;;;;3.64;76.85;99964.81;6185998;23;20017;-80
2021/01/11 10:13:40;;;;;;;64.80;33.50;;;;;;;3.70;77.43;99962.03;6185902;23;20021;-80
2021/01/11 10:16:06;;;;;;;59.28;32.90;;;;;;;3.71;77.17;99953.38;6159669;23;20028;-80
2021/01/11 10:18:32;;;;;;;63.30;32.13;;;;;;;3.74;77.16;99952.44;6186168;23;20017;-80
2021/01/11 10:21:00;;;;;;;66.95;32.88;;;;;;;3.75;77.40;99949.78;6186045;23;20021;-79
2021/01/11 10:23:28;;;;;;;56.70;31.35;;;;;;;3.76;77.22;99951.50;6186080;23;20017;-79
2021/01/11 10:25:55;;;;;;;58.65;30.70;;;;;;;3.80;77.10;99946.19;6159939;23;20025;-79
2021/01/11 10:28:22;;;;;;;56.67;30.33;;;;;;;3.81;77.51;99938.34;6184296;23;20075;-80
2021/01/11 10:30:48;;;;;;;61.85;30.42;;;;;;;3.82;76.83;99929.66;6159369;23;20025;-79
2021/01/11 10:33:16;;;;;;;55.03;30.42;;;;;;;3.83;77.09;99935.69;6158741;23;20096;-80
2021/01/11 10:35:42;;;;;;;51.75;29.17;;;;;;;3.84;76.96;99932.19;6185094;23;20017;-80
2021/01/11 10:38:08;;;;;;;52.30;29.48;;;;;;;3.85;77.21;99920.91;6184904;23;20020;-80
2021/01/11 10:40:38;;;;;;;53.25;28.73;;;;;;;3.86;77.23;99928.69;6159384;23;20021;-80
2021/01/11 10:43:04;;;;;;;51.80;28.20;;;;;;;3.87;77.11;99909.53;6184720;23;20021;-80
2021/01/11 10:45:31;;;;;;;56.90;31.33;;;;;;;3.85;76.98;99913.09;6159333;23;20021;-79
2021/01/11 10:47:57;;;;;;;53.05;29.00;;;;;;;3.86;76.91;99925.22;6185508;23;20352;-80
2021/01/11 10:50:25;;;;;;;49.10;28.25;;;;;;;3.87;77.22;99906.94;6135582;23;20028;-79
2021/01/11 10:52:51;;;;;;;50.50;28.05;;;;;;;3.86;77.05;99899.16;6184659;23;20333;-79
2021/01/11 10:55:18;;;;;;;49.70;28.63;;;;;;;3.86;76.88;99899.16;6184959;23;20567;-80
2021/01/11 10:57:44;;;;;;;53.25;28.00;;;;;;;3.86;77.15;99894.81;6184948;23;20407;-79
2021/01/11 11:00:12;;;;;;;51.25;27.90;;;;;;;3.88;76.94;99895.63;6184561;23;20096;-79
2021/01/11 11:02:44;;;;;;;49.70;28.70;;;;;;;3.88;76.71;99898.22;6184298;23;20020;-80
2021/01/11 11:05:15;;;;;;;50.17;28.08;;;;;;;3.89;77.09;99888.69;6159921;23;20025;-79
2021/01/11 11:07:46;;;;;;;48.92;27.23;;;;;;;3.86;77.08;99896.56;6159849;23;20021;-79
2021/01/11 11:10:17;;;;;;;50.38;27.58;;;;;;;3.85;76.93;99894.84;6185094;23;20021;-80
2021/01/11 11:12:43;;;;;;;50.25;27.67;;;;;;;3.85;76.85;99879.22;6184049;23;20017;-79
2021/01/11 11:15:10;;;;;;;45.42;25.48;;;;;;;3.84;76.88;99880.97;6158769;23;20025;-80
2021/01/11 11:17:36;;;;;;;41.38;25.13;;;;;;;3.85;77.14;99871.44;6159215;23;20060;-79
2021/01/11 11:20:03;;;;;;;49.38;26.48;;;;;;;3.85;77.02;99877.47;6186688;23;20467;-80
2021/01/11 11:22:34;;;;;;;48.70;25.40;;;;;;;3.86;76.85;99866.19;6160924;23;20021;-79
2021/01/11 11:25:06;;;;;;;46.22;26.42;;;;;;;3.85;76.74;99880.06;6187249;23;20021;-79
2021/01/11 11:27:36;;;;;;;43.47;26.13;;;;;;;3.84;76.71;99873.16;6187312;23;20096;-79
2021/01/11 11:30:05;;;;;;;43.67;24.10;;;;;;;3.87;77.14;99864.41;6186938;23;20075;-79
2021/01/11 11:32:34;;;;;;;44.17;24.23;;;;;;;3.88;76.73;99858.28;6159963;23;20027;-79
2021/01/11 11:35:05;;;;;;;40.25;23.20;;;;;;;3.85;76.42;99842.78;6186846;23;20040;-79